createdAt,value
2018-08-09T00:00:10.303Z,3.67
2018-08-09T00:02:38.691Z,4.03
2018-08-09T00:05:07.126Z,3.60
2018-08-09T00:07:35.496Z,4.70
2018-08-09T00:10:05.111Z,3.80
2018-08-09T00:12:33.490Z,3.87
2018-08-09T00:15:01.838Z,4.30
2018-08-09T00:17:30.187Z,3.40
2018-08-09T00:19:58.510Z,4.20
2018-08-09T00:22:26.879Z,4.03
2018-08-09T00:24:55.231Z,4.60
2018-08-09T00:27:23.600Z,4.37
2018-08-09T00:29:51.922Z,4.27
2018-08-09T00:32:20.268Z,4.90
2018-08-09T00:34:48.743Z,4.47
2018-08-09T00:37:17.082Z,4.73
2018-08-09T00:39:45.411Z,4.67
2018-08-09T00:42:13.803Z,4.50
2018-08-09T00:44:42.360Z,4.60
2018-08-09T00:47:10.710Z,4.50
2018-08-09T00:49:39.044Z,4.80
2018-08-09T00:52:07.455Z,5.27
2018-08-09T00:54:35.779Z,5.00
2018-08-09T00:57:04.135Z,5.17
2018-08-09T00:59:32.451Z,5.73
2018-08-09T01:02:00.819Z,5.17
2018-08-09T01:04:29.151Z,5.70
2018-08-09T01:06:57.511Z,7.07
2018-08-09T01:09:25.835Z,5.90
2018-08-09T01:11:54.245Z,5.80
2018-08-09T01:14:22.579Z,5.20
2018-08-09T01:16:50.939Z,5.63
2018-08-09T01:19:19.271Z,6.40
2018-08-09T01:21:48.019Z,6.10
2018-08-09T01:24:16.394Z,6.00
2018-08-09T01:26:44.743Z,5.63
2018-08-09T01:29:13.100Z,5.50
2018-08-09T01:31:41.471Z,5.70
2018-08-09T01:34:10.754Z,5.90
2018-08-09T01:36:39.490Z,5.40
2018-08-09T01:39:09.607Z,5.70
2018-08-09T01:41:37.964Z,5.50
2018-08-09T01:44:07.855Z,5.37
2018-08-09T01:46:36.301Z,5.33
2018-08-09T01:49:04.706Z,5.30
2018-08-09T01:51:33.143Z,5.30
2018-08-09T01:54:01.552Z,4.73
2018-08-09T01:56:29.994Z,5.00
2018-08-09T01:58:58.448Z,5.60
2018-08-09T02:01:26.851Z,5.57
2018-08-09T02:03:55.283Z,5.03
2018-08-09T02:06:23.722Z,4.57
2018-08-09T02:08:52.143Z,5.40
2018-08-09T02:11:20.545Z,4.17
2018-08-09T02:13:48.958Z,5.30
2018-08-09T02:16:17.356Z,5.30
2018-08-09T02:18:45.787Z,4.80
2018-08-09T02:21:14.235Z,4.37
2018-08-09T02:23:42.702Z,3.90
2018-08-09T02:26:11.103Z,4.03
2018-08-09T02:28:39.532Z,4.80
2018-08-09T02:31:07.933Z,4.33
2018-08-09T02:33:36.361Z,4.67
2018-08-09T02:36:04.763Z,4.43
2018-08-09T02:38:33.183Z,4.80
2018-08-09T02:41:01.579Z,4.87
2018-08-09T02:43:30.036Z,5.30
2018-08-09T02:45:58.447Z,5.30
2018-08-09T02:48:26.880Z,5.57
2018-08-09T02:50:55.264Z,5.70
2018-08-09T02:53:23.679Z,5.00
2018-08-09T02:55:52.080Z,5.50
2018-08-09T02:58:20.496Z,5.47
2018-08-09T03:00:48.927Z,5.70
2018-08-09T03:03:17.383Z,5.73
2018-08-09T03:05:45.788Z,5.00
2018-08-09T03:08:14.235Z,4.90
2018-08-09T03:10:42.732Z,4.50
2018-08-09T03:13:11.167Z,5.27
2018-08-09T03:15:39.555Z,4.63
2018-08-09T03:18:07.994Z,4.50
2018-08-09T03:20:36.390Z,4.87
2018-08-09T03:23:04.823Z,4.23
2018-08-09T03:25:33.202Z,4.40
2018-08-09T03:28:01.611Z,4.37
2018-08-09T03:30:30.049Z,4.10
2018-08-09T03:32:58.458Z,4.00
2018-08-09T03:35:26.870Z,4.30
2018-08-09T03:37:55.418Z,5.03
2018-08-09T03:40:23.810Z,3.90
2018-08-09T03:42:52.211Z,4.23
2018-08-09T03:45:20.564Z,4.60
2018-08-09T03:47:48.973Z,5.10
2018-08-09T03:50:17.335Z,4.50
2018-08-09T03:52:45.946Z,4.80
2018-08-09T03:55:14.315Z,4.50
2018-08-09T03:57:42.684Z,4.00
2018-08-09T04:00:11.135Z,4.70
2018-08-09T04:02:39.851Z,4.50
2018-08-09T04:05:09.095Z,4.93
2018-08-09T04:07:37.468Z,5.20
2018-08-09T04:10:06.594Z,4.40
2018-08-09T04:12:34.959Z,4.70
2018-08-09T04:15:03.343Z,4.10
2018-08-09T04:17:31.679Z,4.30
2018-08-09T04:20:00.025Z,4.63
2018-08-09T04:22:28.367Z,4.10
2018-08-09T04:24:56.720Z,4.43
2018-08-09T04:27:25.066Z,4.57
2018-08-09T04:29:53.443Z,4.07
2018-08-09T04:32:21.775Z,4.53
2018-08-09T04:34:50.132Z,4.90
2018-08-09T04:37:18.487Z,4.10
2018-08-09T04:39:46.847Z,3.80
2018-08-09T04:42:15.174Z,3.70
2018-08-09T04:44:43.547Z,4.20
2018-08-09T04:47:11.895Z,4.90
2018-08-09T04:49:40.251Z,4.37
2018-08-09T04:52:09.623Z,4.10
2018-08-09T04:54:38.249Z,4.70
2018-08-09T04:57:08.075Z,4.70
2018-08-09T04:59:37.631Z,4.50
2018-08-09T05:02:07.567Z,4.73
2018-08-09T05:04:37.112Z,4.50
2018-08-09T05:07:07.608Z,4.37
2018-08-09T05:09:37.632Z,4.50
2018-08-09T05:12:06.651Z,4.37
2018-08-09T05:14:36.075Z,5.00
2018-08-09T05:17:06.727Z,4.87
2018-08-09T05:19:35.877Z,5.13
2018-08-09T05:22:05.918Z,4.07
2018-08-09T05:24:37.598Z,4.47
2018-08-09T05:27:07.893Z,4.20
2018-08-09T05:29:40.878Z,4.13
2018-08-09T05:32:09.227Z,4.60
2018-08-09T05:34:37.850Z,4.53
2018-08-09T05:37:06.171Z,5.00
2018-08-09T05:39:35.980Z,4.50
2018-08-09T05:42:04.351Z,4.37
2018-08-09T05:44:32.736Z,4.80
2018-08-09T05:47:01.336Z,4.90
2018-08-09T05:49:29.874Z,4.67
2018-08-09T05:51:58.628Z,4.70
2018-08-09T05:54:28.141Z,4.53
2018-08-09T05:56:57.665Z,4.93
2018-08-09T05:59:27.748Z,5.10
2018-08-09T06:01:57.990Z,5.57
2018-08-09T06:04:27.774Z,4.60
2018-08-09T06:06:56.218Z,5.50
2018-08-09T06:09:24.604Z,4.47
2018-08-09T06:11:53.835Z,4.73
2018-08-09T06:14:22.204Z,5.27
2018-08-09T06:19:25.168Z,4.63
2018-08-09T06:21:53.503Z,4.27
2018-08-09T06:24:22.070Z,5.00
2018-08-09T06:26:50.444Z,4.63
2018-08-09T06:29:18.829Z,4.83
2018-08-09T06:31:47.155Z,4.70
2018-08-09T06:34:15.503Z,5.40
2018-08-09T06:36:43.847Z,4.80
2018-08-09T06:39:12.231Z,5.33
2018-08-09T06:41:40.551Z,5.50
2018-08-09T06:44:09.167Z,6.17
2018-08-09T06:46:37.539Z,5.60
2018-08-09T06:49:05.887Z,6.07
2018-08-09T06:51:34.230Z,5.70
2018-08-09T06:54:02.555Z,5.60
2018-08-09T06:56:30.920Z,6.30
2018-08-09T06:58:59.248Z,6.00
2018-08-09T07:01:27.624Z,6.23
2018-08-09T07:03:55.992Z,5.93
2018-08-09T07:06:24.339Z,5.60
2018-08-09T07:08:52.671Z,6.10
2018-08-09T07:11:21.922Z,5.73
2018-08-09T07:13:50.252Z,6.60
2018-08-09T07:16:18.616Z,6.57
2018-08-09T07:18:46.954Z,7.10
2018-08-09T07:21:15.303Z,8.10
2018-08-09T07:23:43.635Z,7.33
2018-08-09T07:26:12.010Z,7.80
2018-08-09T07:28:40.367Z,8.77
2018-08-09T07:31:08.794Z,8.23
2018-08-09T07:33:37.227Z,9.30
2018-08-09T07:36:05.643Z,9.57
2018-08-09T07:38:34.178Z,9.20
2018-08-09T07:41:02.651Z,8.73
2018-08-09T07:43:31.011Z,9.40
2018-08-09T07:45:59.415Z,9.00
2018-08-09T07:48:27.805Z,10.60
2018-08-09T07:50:56.118Z,10.20
2018-08-09T07:53:24.463Z,10.77
2018-08-09T07:55:52.842Z,9.17
2018-08-09T07:58:21.235Z,10.83
2018-08-09T08:00:49.624Z,10.27
2018-08-09T08:03:18.019Z,10.30
2018-08-09T08:05:46.388Z,9.90
2018-08-09T08:08:14.821Z,10.47
2018-08-09T08:10:43.170Z,9.90
2018-08-09T08:13:11.497Z,10.00
2018-08-09T08:15:39.843Z,10.60
2018-08-09T08:18:08.216Z,9.17
2018-08-09T08:20:36.652Z,10.37
2018-08-09T08:23:05.023Z,9.87
2018-08-09T08:25:33.379Z,9.60
2018-08-09T08:28:01.717Z,10.20
2018-08-09T08:30:30.123Z,9.53
2018-08-09T08:32:58.461Z,9.63
2018-08-09T08:35:26.831Z,10.20
2018-08-09T08:37:55.191Z,11.07
2018-08-09T08:40:23.547Z,10.10
2018-08-09T08:42:51.895Z,10.00
2018-08-09T08:45:20.335Z,11.63
2018-08-09T08:47:48.764Z,10.17
2018-08-09T08:50:17.285Z,10.10
2018-08-09T08:52:45.721Z,10.87
2018-08-09T08:55:14.172Z,11.10
2018-08-09T08:57:42.676Z,10.10
2018-08-09T09:00:12.319Z,10.83
2018-08-09T09:02:40.978Z,10.20
2018-08-09T09:05:11.446Z,10.37
2018-08-09T09:07:40.062Z,10.20
2018-08-09T09:10:10.286Z,10.67
2018-08-09T09:12:38.774Z,9.43
2018-08-09T09:15:09.554Z,11.70
2018-08-09T09:17:38.055Z,9.97
2018-08-09T09:20:10.963Z,10.03
2018-08-09T09:22:39.582Z,10.77
2018-08-09T09:25:08.931Z,10.70
2018-08-09T09:27:37.427Z,10.27
2018-08-09T09:30:08.158Z,9.77
2018-08-09T09:32:36.587Z,10.37
2018-08-09T09:35:05.666Z,8.70
2018-08-09T09:37:34.825Z,8.57
2018-08-09T09:40:03.311Z,8.80
2018-08-09T09:42:31.746Z,9.50
2018-08-09T09:45:00.183Z,8.43
2018-08-09T09:47:28.595Z,8.77
2018-08-09T09:49:57.011Z,8.80
2018-08-09T09:52:25.444Z,9.70
2018-08-09T09:54:53.872Z,8.90
2018-08-09T09:57:22.332Z,8.10
2018-08-09T09:59:55.997Z,8.50
2018-08-09T10:02:25.707Z,8.33
2018-08-09T10:04:56.295Z,8.10
2018-08-09T10:07:24.730Z,8.50
2018-08-09T10:09:53.672Z,8.43
2018-08-09T10:12:22.236Z,9.10
2018-08-09T10:14:50.631Z,8.30
2018-08-09T10:17:19.128Z,7.80
2018-08-09T10:19:47.565Z,9.10
2018-08-09T10:22:16.043Z,8.23
2018-08-09T10:24:44.447Z,8.03
2018-08-09T10:27:12.951Z,7.73
2018-08-09T10:29:41.430Z,8.40
2018-08-09T10:32:09.843Z,8.20
2018-08-09T10:34:38.235Z,8.27
2018-08-09T10:37:07.166Z,7.70
2018-08-09T10:39:35.570Z,7.67
2018-08-09T10:42:04.010Z,7.83
2018-08-09T10:44:32.359Z,8.10
2018-08-09T10:47:00.707Z,8.07
2018-08-09T10:49:29.055Z,8.10
2018-08-09T10:51:57.463Z,8.57
2018-08-09T10:54:25.788Z,8.50
2018-08-09T10:56:54.335Z,8.43
2018-08-09T10:59:22.671Z,8.10
2018-08-09T11:01:51.161Z,7.20
2018-08-09T11:04:19.395Z,7.70
2018-08-09T11:06:48.167Z,8.77
2018-08-09T11:09:16.522Z,8.47
2018-08-09T11:11:44.862Z,7.97
2018-08-09T11:14:13.216Z,7.23
2018-08-09T11:16:41.559Z,8.87
2018-08-09T11:19:10.071Z,7.50
2018-08-09T11:21:38.483Z,7.67
2018-08-09T11:24:06.847Z,7.93
2018-08-09T11:26:35.270Z,7.50
2018-08-09T11:29:03.746Z,7.93
2018-08-09T11:31:32.099Z,7.13
2018-08-09T11:34:00.625Z,8.17
2018-08-09T11:36:28.923Z,7.23
2018-08-09T11:38:57.288Z,7.10
2018-08-09T11:41:25.898Z,7.30
2018-08-09T11:43:54.440Z,8.17
2018-08-09T11:46:22.887Z,8.73
2018-08-09T11:48:51.299Z,7.20
2018-08-09T11:51:19.695Z,6.63
2018-08-09T11:53:48.141Z,7.57
2018-08-09T11:56:16.668Z,7.70
2018-08-09T11:58:51.802Z,8.67
2018-08-09T12:01:20.213Z,8.47
2018-08-09T12:03:48.636Z,8.40
2018-08-09T12:06:17.102Z,7.63
2018-08-09T12:08:45.546Z,8.17
2018-08-09T12:11:14.002Z,7.83
2018-08-09T12:13:42.440Z,8.20
2018-08-09T12:16:10.916Z,8.50
2018-08-09T12:18:39.367Z,8.00
2018-08-09T12:21:07.821Z,7.93
2018-08-09T12:23:36.227Z,8.13
2018-08-09T12:26:04.695Z,7.67
2018-08-09T12:28:33.139Z,8.60
2018-08-09T12:31:01.666Z,8.00
2018-08-09T12:33:30.099Z,7.90
2018-08-09T12:35:58.555Z,7.07
2018-08-09T12:38:27.064Z,7.10
2018-08-09T12:40:55.527Z,7.57
2018-08-09T12:43:24.024Z,7.10
2018-08-09T12:45:52.507Z,7.90
2018-08-09T12:48:20.948Z,6.90
2018-08-09T12:50:49.402Z,7.70
2018-08-09T12:53:17.850Z,8.07
2018-08-09T12:55:46.279Z,7.70
2018-08-09T12:58:14.722Z,7.43
2018-08-09T13:00:43.159Z,8.17
2018-08-09T13:03:11.620Z,8.63
2018-08-09T13:05:40.088Z,9.00
2018-08-09T13:08:08.611Z,9.80
2018-08-09T13:10:37.539Z,12.10
2018-08-09T13:13:06.015Z,10.60
2018-08-09T13:15:34.428Z,9.80
2018-08-09T13:18:02.931Z,10.30
2018-08-09T13:20:31.361Z,7.73
2018-08-09T13:22:59.796Z,6.70
2018-08-09T13:25:28.307Z,7.00
2018-08-09T13:27:56.726Z,7.07
2018-08-09T13:30:25.218Z,6.90
2018-08-09T13:32:53.663Z,7.47
2018-08-09T13:35:22.127Z,8.67
2018-08-09T13:37:50.555Z,8.17
2018-08-09T13:40:19.059Z,8.63
2018-08-09T13:42:47.495Z,7.40
2018-08-09T13:45:16.790Z,8.10
2018-08-09T13:47:45.219Z,6.60
2018-08-09T13:50:13.779Z,7.63
2018-08-09T13:52:42.621Z,7.27
2018-08-09T13:55:12.703Z,7.00
2018-08-09T13:57:41.134Z,7.20
2018-08-09T14:00:11.515Z,7.43
2018-08-09T14:02:40.623Z,7.43
2018-08-09T14:05:09.786Z,6.77
2018-08-09T14:07:39.270Z,7.10
2018-08-09T14:10:08.933Z,6.60
2018-08-09T14:12:37.418Z,7.20
2018-08-09T14:15:07.295Z,7.60
2018-08-09T14:17:36.067Z,5.93
2018-08-09T14:20:05.718Z,6.30
2018-08-09T14:22:34.135Z,5.27
2018-08-09T14:25:02.688Z,5.90
2018-08-09T14:27:31.314Z,5.90
2018-08-09T14:29:59.781Z,5.73
2018-08-09T14:32:28.195Z,5.77
2018-08-09T14:34:56.902Z,6.00
2018-08-09T14:37:25.401Z,5.80
2018-08-09T14:39:53.904Z,6.07
2018-08-09T14:42:22.431Z,5.70
2018-08-09T14:44:50.863Z,5.90
2018-08-09T14:47:19.587Z,6.30
2018-08-09T14:49:48.026Z,5.73
2018-08-09T14:52:16.480Z,5.77
2018-08-09T14:54:44.918Z,5.63
2018-08-09T14:57:13.351Z,5.87
2018-08-09T14:59:41.843Z,5.40
2018-08-09T15:02:10.272Z,6.23
2018-08-09T15:04:38.754Z,5.63
2018-08-09T15:07:07.254Z,5.47
2018-08-09T15:09:35.735Z,6.07
2018-08-09T15:12:04.423Z,5.03
2018-08-09T15:14:32.911Z,5.90
2018-08-09T15:17:01.367Z,5.73
2018-08-09T15:19:29.929Z,5.67
2018-08-09T15:22:01.228Z,5.60
2018-08-09T15:24:29.777Z,5.50
2018-08-09T15:26:58.204Z,5.50
2018-08-09T15:29:26.662Z,6.27
2018-08-09T15:31:55.154Z,5.97
2018-08-09T15:34:23.588Z,5.90
2018-08-09T15:36:52.043Z,6.67
2018-08-09T15:39:20.567Z,6.03
2018-08-09T15:41:49.015Z,6.63
2018-08-09T15:44:17.410Z,6.53
2018-08-09T15:46:45.810Z,6.07
2018-08-09T15:49:14.171Z,6.17
2018-08-09T15:51:42.554Z,7.00
2018-08-09T15:54:10.893Z,6.50
2018-08-09T15:56:39.284Z,5.70
2018-08-09T15:59:07.687Z,5.83
2018-08-09T16:01:36.059Z,6.63
2018-08-09T16:04:04.447Z,6.60
2018-08-09T16:06:32.822Z,5.90
2018-08-09T16:09:01.183Z,6.17
2018-08-09T16:11:29.771Z,5.60
2018-08-09T16:13:58.124Z,6.00
2018-08-09T16:16:26.572Z,6.20
2018-08-09T16:18:54.923Z,6.93
2018-08-09T16:21:24.204Z,7.20
2018-08-09T16:23:53.671Z,6.00
2018-08-09T16:26:22.056Z,6.27
2018-08-09T16:28:50.836Z,5.93
2018-08-09T16:31:19.763Z,5.60
2018-08-09T16:33:48.443Z,6.30
2018-08-09T16:36:16.828Z,6.57
2018-08-09T16:38:45.171Z,7.13
2018-08-09T16:41:13.823Z,6.43
2018-08-09T16:43:42.830Z,7.00
2018-08-09T16:46:12.191Z,6.10
2018-08-09T16:48:40.539Z,6.70
2018-08-09T16:51:08.934Z,6.20
2018-08-09T16:53:37.283Z,5.77
2018-08-09T16:56:06.086Z,6.43
2018-08-09T16:58:34.432Z,5.67
2018-08-09T17:01:02.791Z,6.13
2018-08-09T17:03:35.271Z,6.13
2018-08-09T17:06:03.799Z,5.47
2018-08-09T17:08:32.158Z,5.83
2018-08-09T17:11:00.547Z,6.53
2018-08-09T17:13:29.147Z,6.37
2018-08-09T17:15:57.809Z,5.77
2018-08-09T17:18:26.336Z,6.20
2018-08-09T17:20:54.779Z,5.27
2018-08-09T17:23:23.260Z,5.53
2018-08-09T17:25:51.647Z,4.40
2018-08-09T17:28:20.038Z,5.37
2018-08-09T17:30:48.457Z,4.20
2018-08-09T17:33:16.826Z,4.50
2018-08-09T17:35:45.231Z,3.97
2018-08-09T17:38:13.615Z,4.80
2018-08-09T17:40:41.971Z,4.30
2018-08-09T17:43:10.431Z,4.33
2018-08-09T17:45:38.924Z,4.30
2018-08-09T17:48:07.359Z,4.53
2018-08-09T17:50:35.844Z,4.70
2018-08-09T17:53:05.187Z,4.63
2018-08-09T17:55:33.874Z,4.50
2018-08-09T17:58:02.346Z,4.13
2018-08-09T18:00:32.239Z,4.50
2018-08-09T18:03:00.715Z,3.87
2018-08-09T18:05:29.162Z,4.33
2018-08-09T18:07:58.390Z,4.23
2018-08-09T18:10:29.163Z,3.87
2018-08-09T18:12:57.755Z,4.07
2018-08-09T18:15:27.369Z,4.23
2018-08-09T18:17:56.413Z,4.20
2018-08-09T18:20:26.847Z,3.57
2018-08-09T18:22:55.402Z,3.03
2018-08-09T18:25:23.838Z,2.60
2018-08-09T18:27:52.363Z,2.80
2018-08-09T18:30:21.141Z,2.67
2018-08-09T18:32:49.850Z,2.80
2018-08-09T18:35:19.219Z,2.50
2018-08-09T18:37:47.678Z,1.60
2018-08-09T18:40:20.082Z,1.93
2018-08-09T18:42:48.603Z,1.67
2018-08-09T18:45:17.342Z,1.53
2018-08-09T18:47:45.839Z,1.50
2018-08-09T18:50:16.906Z,1.60
2018-08-09T18:52:45.435Z,1.20
2018-08-09T18:55:14.748Z,1.60
2018-08-09T18:57:43.265Z,1.23
2018-08-09T19:00:14.271Z,1.30
2018-08-09T19:02:43.260Z,1.40
2018-08-09T19:05:11.793Z,1.40
2018-08-09T19:07:40.267Z,1.40
2018-08-09T19:10:10.834Z,1.90
2018-08-09T19:12:40.235Z,1.80
2018-08-09T19:15:10.205Z,1.80
2018-08-09T19:17:39.174Z,2.10
2018-08-09T19:20:14.558Z,2.40
2018-08-09T19:22:43.526Z,2.20
2018-08-09T19:25:12.163Z,2.40
2018-08-09T19:27:40.845Z,2.70
2018-08-09T19:30:10.062Z,2.37
2018-08-09T19:32:39.196Z,2.13
2018-08-09T19:35:11.134Z,2.80
2018-08-09T19:37:40.145Z,2.67
2018-08-09T19:40:09.827Z,2.27
2018-08-09T19:42:39.038Z,2.10
2018-08-09T19:45:15.590Z,2.70
2018-08-09T19:47:44.077Z,1.80
2018-08-09T19:50:14.767Z,1.90
2018-08-09T19:52:43.250Z,1.77
2018-08-09T19:55:16.015Z,1.83
2018-08-09T19:57:45.669Z,1.60
2018-08-09T20:00:16.110Z,1.60
2018-08-09T20:02:45.834Z,2.10
2018-08-09T20:05:14.355Z,1.77
2018-08-09T20:07:43.039Z,1.70
2018-08-09T20:10:12.475Z,2.10
2018-08-09T20:12:41.610Z,1.73
2018-08-09T20:15:13.859Z,1.67
2018-08-09T20:17:42.344Z,2.10
2018-08-09T20:20:12.328Z,1.70
2018-08-09T20:22:40.934Z,2.00
2018-08-09T20:25:10.468Z,1.60
2018-08-09T20:27:39.099Z,2.07
2018-08-09T20:30:11.168Z,1.77
2018-08-09T20:32:40.011Z,2.23
2018-08-09T20:35:12.383Z,1.73
2018-08-09T20:37:41.223Z,2.10
2018-08-09T20:40:10.523Z,2.00
2018-08-09T20:42:39.358Z,2.30
2018-08-09T20:45:09.683Z,1.90
2018-08-09T20:47:38.329Z,2.23
2018-08-09T20:50:09.293Z,1.90
2018-08-09T20:52:38.127Z,2.30
2018-08-09T20:55:07.223Z,2.50
2018-08-09T20:57:35.810Z,2.20
2018-08-09T21:00:05.875Z,2.47
2018-08-09T21:02:34.328Z,2.40
2018-08-09T21:05:02.740Z,2.80
2018-08-09T21:07:31.214Z,2.50
2018-08-09T21:09:59.627Z,2.77
2018-08-09T21:12:28.136Z,2.67
2018-08-09T21:14:56.590Z,2.70
2018-08-09T21:17:25.046Z,2.17
2018-08-09T21:19:53.630Z,2.50
2018-08-09T21:22:22.059Z,1.80
2018-08-09T21:24:50.496Z,1.50
2018-08-09T21:27:18.903Z,1.10
2018-08-09T21:29:47.386Z,1.10
2018-08-09T21:32:15.797Z,1.37
2018-08-09T21:34:44.242Z,1.00
2018-08-09T21:37:12.659Z,1.57
2018-08-09T21:39:41.161Z,1.30
2018-08-09T21:42:09.619Z,1.20
2018-08-09T21:44:38.059Z,1.00
2018-08-09T21:47:06.455Z,1.07
2018-08-09T21:49:34.925Z,0.73
2018-08-09T21:52:03.388Z,1.00
2018-08-09T21:54:31.835Z,0.90
2018-08-09T21:57:00.267Z,0.83
2018-08-09T21:59:28.738Z,1.10
2018-08-09T22:01:57.203Z,0.90
2018-08-09T22:04:25.643Z,0.77
2018-08-09T22:07:59.252Z,0.90
2018-08-09T22:10:33.223Z,0.87
2018-08-09T22:14:07.597Z,0.50
2018-08-09T22:16:41.459Z,0.77
2018-08-09T22:19:15.247Z,0.60
2018-08-09T22:21:49.047Z,1.40
2018-08-09T22:24:17.489Z,0.90
2018-08-09T22:26:45.898Z,1.00
2018-08-09T22:29:14.391Z,0.90
2018-08-09T22:31:43.443Z,1.47
2018-08-09T22:34:11.879Z,1.10
2018-08-09T22:36:40.303Z,1.10
2018-08-09T22:39:09.438Z,1.00
2018-08-09T22:41:37.907Z,0.90
2018-08-09T22:44:06.307Z,1.10
2018-08-09T22:46:34.663Z,1.17
2018-08-09T22:49:03.088Z,1.00
2018-08-09T22:51:31.459Z,0.90
2018-08-09T22:53:59.843Z,1.57
2018-08-09T22:56:28.203Z,1.37
2018-08-09T22:58:56.583Z,1.00
2018-08-09T23:01:25.067Z,1.73
2018-08-09T23:03:53.447Z,1.50
2018-08-09T23:06:22.094Z,1.30
2018-08-09T23:08:50.554Z,1.43
2018-08-09T23:11:18.996Z,1.40
2018-08-09T23:13:47.383Z,1.30
2018-08-09T23:16:15.770Z,1.60
2018-08-09T23:18:44.199Z,1.33
2018-08-09T23:21:12.550Z,1.30
2018-08-09T23:23:40.903Z,1.30
2018-08-09T23:26:09.274Z,1.20
2018-08-09T23:28:37.647Z,0.93
2018-08-09T23:31:06.036Z,1.43
2018-08-09T23:33:34.422Z,1.10
2018-08-09T23:36:02.786Z,1.40
2018-08-09T23:38:31.223Z,1.27
2018-08-09T23:41:00.168Z,1.20
2018-08-09T23:43:28.543Z,1.17
2018-08-09T23:45:56.999Z,1.30
2018-08-09T23:48:25.459Z,1.30
2018-08-09T23:50:53.895Z,1.90
2018-08-09T23:53:22.331Z,1.20
2018-08-09T23:55:50.795Z,1.00
2018-08-09T23:58:19.224Z,1.20
